createdAt,value
2023-02-12T00:01:08.725Z,103399.56
2023-02-12T00:03:35.913Z,103404.91
2023-02-12T00:06:02.415Z,103405.81
2023-02-12T00:08:28.819Z,103409.34
2023-02-12T00:10:55.214Z,103411.16
2023-02-12T00:13:21.621Z,103407.63
2023-02-12T00:15:47.977Z,103403.22
2023-02-12T00:18:14.350Z,103410.31
2023-02-12T00:20:40.768Z,103401.44
2023-02-12T00:23:07.543Z,103414.75
2023-02-12T00:25:34.499Z,103406.81
2023-02-12T00:28:00.880Z,103406.81
2023-02-12T00:30:27.274Z,103406.81
2023-02-12T00:32:54.987Z,103406.88
2023-02-12T00:35:21.325Z,103410.41
2023-02-12T00:37:49.727Z,103413.97
2023-02-12T00:40:16.198Z,103404.16
2023-02-12T00:42:42.773Z,103405.09
2023-02-12T00:45:11.292Z,103407.75
2023-02-12T00:47:37.622Z,103406.91
2023-02-12T00:50:04.103Z,103405.16
2023-02-12T00:52:30.478Z,103413.22
2023-02-12T00:54:56.856Z,103411.47
2023-02-12T00:57:23.186Z,103411.47
2023-02-12T00:59:49.545Z,103408.81
2023-02-12T01:02:18.015Z,103413.22
2023-02-12T01:04:44.724Z,103406.16
2023-02-12T01:07:11.280Z,103403.47
2023-02-12T01:09:37.718Z,103403.50
2023-02-12T01:12:04.450Z,103395.53
2023-02-12T01:14:30.855Z,103398.22
2023-02-12T01:16:58.201Z,103404.53
2023-02-12T01:19:24.760Z,103398.28
2023-02-12T01:21:51.074Z,103396.50
2023-02-12T01:24:17.443Z,103395.59
2023-02-12T01:26:43.807Z,103398.22
2023-02-12T01:29:10.268Z,103393.75
2023-02-12T01:31:39.341Z,103396.41
2023-02-12T01:34:07.430Z,103384.81
2023-02-12T01:36:34.703Z,103384.84
2023-02-12T01:39:02.855Z,103385.69
2023-02-12T01:41:36.398Z,103379.56
2023-02-12T01:44:10.633Z,103391.16
2023-02-12T01:46:37.146Z,103389.41
2023-02-12T01:49:07.108Z,103389.47
2023-02-12T01:51:34.826Z,103389.47
2023-02-12T01:54:05.200Z,103378.88
2023-02-12T01:56:32.672Z,103381.50
2023-02-12T01:58:59.160Z,103381.53
2023-02-12T02:01:28.690Z,103381.53
2023-02-12T02:03:59.823Z,103382.41
2023-02-12T02:06:31.945Z,103386.00
2023-02-12T02:09:01.076Z,103385.13
2023-02-12T02:11:45.718Z,103382.47
2023-02-12T02:14:31.094Z,103382.56
2023-02-12T02:17:17.484Z,103384.31
2023-02-12T02:20:02.450Z,103383.44
2023-02-12T02:22:53.530Z,103380.84
2023-02-12T02:25:45.011Z,103381.75
2023-02-12T02:28:39.184Z,103381.75
2023-02-12T02:31:11.685Z,103383.56
2023-02-12T02:34:05.764Z,103368.41
2023-02-12T02:36:59.253Z,103361.28
2023-02-12T02:39:41.750Z,103363.13
2023-02-12T02:42:16.195Z,103366.59
2023-02-12T02:45:05.710Z,103358.59
2023-02-12T02:47:37.949Z,103368.38
2023-02-12T02:50:09.316Z,103371.88
2023-02-12T02:52:41.938Z,103372.78
2023-02-12T02:55:12.796Z,103364.75
2023-02-12T02:57:48.860Z,103363.88
2023-02-12T03:00:27.286Z,103358.59
2023-02-12T03:03:01.819Z,103355.06
2023-02-12T03:05:35.163Z,103356.81
2023-02-12T03:08:34.159Z,103362.09
2023-02-12T03:11:11.896Z,103369.09
2023-02-12T03:13:51.199Z,103355.00
2023-02-12T03:16:25.823Z,103359.47
2023-02-12T03:18:58.711Z,103364.69
2023-02-12T03:21:33.074Z,103358.50
2023-02-12T03:24:11.889Z,103354.97
2023-02-12T03:26:46.133Z,103362.94
2023-02-12T03:29:13.097Z,103358.59
2023-02-12T03:31:51.331Z,103358.56
2023-02-12T03:34:45.486Z,103354.06
2023-02-12T03:37:37.082Z,103370.94
2023-02-12T03:40:20.471Z,103362.94
2023-02-12T03:43:12.686Z,103365.56
2023-02-12T03:45:49.004Z,103362.94
2023-02-12T03:48:33.621Z,103367.41
2023-02-12T03:51:10.909Z,103370.16
2023-02-12T03:53:37.386Z,103361.25
2023-02-12T03:56:12.396Z,103367.53
2023-02-12T03:58:41.759Z,103369.28
2023-02-12T04:01:08.800Z,103374.59
2023-02-12T04:03:35.311Z,103375.47
2023-02-12T04:06:01.652Z,103386.13
2023-02-12T04:08:28.478Z,103385.25
2023-02-12T04:11:17.039Z,103380.78
2023-02-12T04:13:57.758Z,103389.72
2023-02-12T04:16:37.818Z,103394.09
2023-02-12T04:19:04.998Z,103390.56
2023-02-12T04:21:52.048Z,103388.72
2023-02-12T04:24:36.528Z,103393.34
2023-02-12T04:27:18.867Z,103401.50
2023-02-12T04:29:54.594Z,103399.59
2023-02-12T04:32:31.465Z,103406.63
2023-02-12T04:35:05.966Z,103410.09
2023-02-12T04:37:45.881Z,103398.50
2023-02-12T04:40:14.848Z,103403.91
2023-02-12T04:42:43.628Z,103407.47
2023-02-12T04:45:16.485Z,103415.44
2023-02-12T04:47:42.935Z,103421.72
2023-02-12T04:50:09.745Z,103420.78
2023-02-12T04:52:36.083Z,103415.47
2023-02-12T04:55:02.543Z,103425.19
2023-02-12T04:57:28.999Z,103424.28
2023-02-12T04:59:55.430Z,103422.41
2023-02-12T05:02:22.037Z,103419.72
2023-02-12T05:04:51.300Z,103420.63
2023-02-12T05:07:17.817Z,103421.63
2023-02-12T05:09:44.155Z,103419.88
2023-02-12T05:12:10.570Z,103419.00
2023-02-12T05:14:37.044Z,103420.75
2023-02-12T05:17:03.491Z,103419.81
2023-02-12T05:19:29.907Z,103414.53
2023-02-12T05:21:56.283Z,103421.56
2023-02-12T05:24:22.615Z,103421.56
2023-02-12T05:26:50.994Z,103422.47
2023-02-12T05:29:18.054Z,103434.06
2023-02-12T05:31:44.884Z,103436.78
2023-02-12T05:34:12.632Z,103437.66
2023-02-12T05:36:39.877Z,103441.22
2023-02-12T05:39:07.239Z,103440.31
2023-02-12T05:41:36.444Z,103441.22
2023-02-12T05:44:04.129Z,103436.69
2023-02-12T05:46:31.293Z,103442.06
2023-02-12T05:48:57.826Z,103438.53
2023-02-12T05:51:26.080Z,103450.00
2023-02-12T05:53:58.692Z,103442.94
2023-02-12T05:56:27.898Z,103448.31
2023-02-12T05:59:06.999Z,103452.81
2023-02-12T06:01:39.318Z,103441.25
2023-02-12T06:04:07.953Z,103448.38
2023-02-12T06:06:34.742Z,103447.41
2023-02-12T06:09:01.340Z,103446.56
2023-02-12T06:11:28.020Z,103443.91
2023-02-12T06:13:54.387Z,103451.84
2023-02-12T06:16:23.790Z,103450.09
2023-02-12T06:18:51.089Z,103451.94
2023-02-12T06:21:20.059Z,103450.16
2023-02-12T06:23:46.943Z,103446.63
2023-02-12T06:26:13.374Z,103453.69
2023-02-12T06:28:39.840Z,103450.19
2023-02-12T06:31:25.786Z,103447.53
2023-02-12T06:33:52.961Z,103444.88
2023-02-12T06:36:19.680Z,103443.13
2023-02-12T06:38:46.481Z,103452.94
2023-02-12T06:41:12.901Z,103453.81
2023-02-12T06:43:39.455Z,103457.38
2023-02-12T06:46:07.042Z,103451.19
2023-02-12T06:48:33.938Z,103460.97
2023-02-12T06:51:11.690Z,103460.03
2023-02-12T06:53:38.101Z,103454.75
2023-02-12T06:56:06.482Z,103454.75
2023-02-12T06:58:32.930Z,103458.34
2023-02-12T07:01:12.190Z,103458.41
2023-02-12T07:03:40.531Z,103469.09
2023-02-12T07:06:07.085Z,103468.25
2023-02-12T07:08:33.403Z,103474.47
2023-02-12T07:10:59.745Z,103472.72
2023-02-12T07:13:26.071Z,103470.00
2023-02-12T07:15:52.451Z,103480.66
2023-02-12T07:18:18.832Z,103478.00
2023-02-12T07:20:45.242Z,103478.00
2023-02-12T07:23:12.407Z,103478.03
2023-02-12T07:25:38.870Z,103479.84
2023-02-12T07:28:05.305Z,103484.28
2023-02-12T07:30:31.790Z,103498.47
2023-02-12T07:32:58.140Z,103493.16
2023-02-12T07:35:24.450Z,103489.59
2023-02-12T07:37:50.773Z,103492.19
2023-02-12T07:40:17.297Z,103497.47
2023-02-12T07:42:43.600Z,103494.75
2023-02-12T07:45:10.620Z,103500.03
2023-02-12T07:47:38.413Z,103505.28
2023-02-12T07:50:07.122Z,103505.28
2023-02-12T07:52:33.449Z,103501.66
2023-02-12T07:54:59.788Z,103506.97
2023-02-12T07:57:26.128Z,103505.13
2023-02-12T07:59:52.738Z,103508.66
2023-02-12T08:02:19.167Z,103505.94
2023-02-12T08:04:45.552Z,103511.19
2023-02-12T08:07:11.976Z,103505.81
2023-02-12T08:09:38.347Z,103515.53
2023-02-12T08:12:04.931Z,103515.50
2023-02-12T08:14:31.419Z,103513.69
2023-02-12T08:16:57.818Z,103518.16
2023-02-12T08:19:26.642Z,103520.81
2023-02-12T08:21:54.726Z,103518.94
2023-02-12T08:24:23.787Z,103522.41
2023-02-12T08:26:50.623Z,103530.38
2023-02-12T08:29:27.163Z,103522.31
2023-02-12T08:31:59.687Z,103526.78
2023-02-12T08:34:34.795Z,103534.72
2023-02-12T08:37:01.873Z,103532.88
2023-02-12T08:39:29.742Z,103534.63
2023-02-12T08:41:57.911Z,103525.75
2023-02-12T08:44:24.312Z,103523.84
2023-02-12T08:46:52.403Z,103530.09
2023-02-12T08:49:22.188Z,103530.84
2023-02-12T08:51:51.617Z,103529.91
2023-02-12T08:54:20.603Z,103544.06
2023-02-12T08:56:47.163Z,103543.19
2023-02-12T08:59:14.841Z,103530.78
2023-02-12T09:01:42.218Z,103543.13
2023-02-12T09:04:14.999Z,103536.81
2023-02-12T09:06:41.432Z,103543.00
2023-02-12T09:09:07.894Z,103541.19
2023-02-12T09:11:34.428Z,103540.16
2023-02-12T09:14:03.538Z,103542.78
2023-02-12T09:16:32.331Z,103550.69
2023-02-12T09:18:58.841Z,103548.81
2023-02-12T09:21:25.329Z,103553.22
2023-02-12T09:23:51.918Z,103548.66
2023-02-12T09:26:21.296Z,103554.03
2023-02-12T09:28:49.739Z,103557.50
2023-02-12T09:31:20.712Z,103557.50
2023-02-12T09:33:50.521Z,103553.09
2023-02-12T09:36:18.146Z,103552.16
2023-02-12T09:38:44.601Z,103557.41
2023-02-12T09:41:34.699Z,103560.91
2023-02-12T09:44:27.577Z,103562.63
2023-02-12T09:47:06.749Z,103543.06
2023-02-12T09:49:49.893Z,103547.38
2023-02-12T09:52:20.383Z,103557.16
2023-02-12T09:54:49.589Z,103554.34
2023-02-12T09:57:37.586Z,103560.56
2023-02-12T10:00:15.331Z,103558.66
2023-02-12T10:02:42.075Z,103559.44
2023-02-12T10:05:42.740Z,103561.13
2023-02-12T10:08:31.784Z,103566.41
2023-02-12T10:11:35.106Z,103567.13
2023-02-12T10:14:20.135Z,103560.78
2023-02-12T10:17:15.644Z,103560.00
2023-02-12T10:20:03.975Z,103560.78
2023-02-12T10:22:57.144Z,103568.66
2023-02-12T10:25:34.157Z,103560.59
2023-02-12T10:28:08.881Z,103566.59
2023-02-12T10:30:42.812Z,103566.50
2023-02-12T10:33:29.387Z,103568.16
2023-02-12T10:36:03.095Z,103563.63
2023-02-12T10:38:36.315Z,103562.56
2023-02-12T10:41:02.740Z,103565.13
2023-02-12T10:43:29.783Z,103561.47
2023-02-12T10:45:57.237Z,103559.56
2023-02-12T10:48:38.687Z,103556.81
2023-02-12T10:51:07.954Z,103557.59
2023-02-12T10:53:37.783Z,103546.88
2023-02-12T10:56:13.236Z,103550.31
2023-02-12T10:58:42.516Z,103552.81
2023-02-12T11:01:16.844Z,103552.09
2023-02-12T11:03:43.203Z,103541.19
2023-02-12T11:06:16.319Z,103540.25
2023-02-12T11:08:43.794Z,103541.25
2023-02-12T11:11:22.975Z,103536.81
2023-02-12T11:14:02.538Z,103539.41
2023-02-12T11:16:34.033Z,103534.03
2023-02-12T11:19:22.227Z,103532.09
2023-02-12T11:21:49.796Z,103534.78
2023-02-12T11:24:34.377Z,103535.69
2023-02-12T11:27:15.595Z,103527.91
2023-02-12T11:29:44.356Z,103525.06
2023-02-12T11:32:19.543Z,103520.38
2023-02-12T11:35:06.850Z,103529.13
2023-02-12T11:37:36.414Z,103524.41
2023-02-12T11:40:03.514Z,103528.00
2023-02-12T11:42:34.757Z,103523.69
2023-02-12T11:45:02.187Z,103520.19
2023-02-12T11:47:31.916Z,103520.22
2023-02-12T11:50:15.915Z,103519.09
2023-02-12T11:52:42.769Z,103515.47
2023-02-12T11:55:27.514Z,103520.78
2023-02-12T11:58:13.430Z,103511.91
2023-02-12T12:00:48.951Z,103518.88
2023-02-12T12:03:21.604Z,103510.97
2023-02-12T12:05:54.579Z,103503.88
2023-02-12T12:08:29.388Z,103508.16
2023-02-12T12:11:09.360Z,103503.56
2023-02-12T12:13:44.423Z,103504.41
2023-02-12T12:16:34.415Z,103499.03
2023-02-12T12:19:52.295Z,103496.47
2023-02-12T12:22:41.186Z,103488.56
2023-02-12T12:25:20.778Z,103484.25
2023-02-12T12:28:07.984Z,103484.16
2023-02-12T12:31:02.464Z,103477.75
2023-02-12T12:33:47.747Z,103483.84
2023-02-12T12:36:14.081Z,103475.91
2023-02-12T12:38:55.165Z,103475.91
2023-02-12T12:41:47.860Z,103479.41
2023-02-12T12:44:38.788Z,103476.66
2023-02-12T12:47:17.643Z,103476.63
2023-02-12T12:50:14.993Z,103473.25
2023-02-12T12:52:57.494Z,103467.69
2023-02-12T12:56:01.410Z,103467.69
2023-02-12T12:58:44.681Z,103465.06
2023-02-12T13:01:35.052Z,103456.97
2023-02-12T13:04:32.291Z,103457.91
2023-02-12T13:07:13.226Z,103462.31
2023-02-12T13:09:48.436Z,103448.16
2023-02-12T13:12:23.915Z,103445.47
2023-02-12T13:15:01.297Z,103441.91
2023-02-12T13:17:45.871Z,103437.69
2023-02-12T13:20:45.117Z,103435.00
2023-02-12T13:23:23.545Z,103433.28
2023-02-12T13:26:07.543Z,103430.50
2023-02-12T13:28:38.316Z,103426.94
2023-02-12T13:31:30.038Z,103427.84
2023-02-12T13:33:59.757Z,103426.94
2023-02-12T13:36:26.143Z,103424.38
2023-02-12T13:39:01.526Z,103421.72
2023-02-12T13:41:28.579Z,103423.44
2023-02-12T13:44:01.635Z,103428.78
2023-02-12T13:46:40.013Z,103421.59
2023-02-12T13:49:24.653Z,103420.41
2023-02-12T13:52:13.746Z,103425.72
2023-02-12T13:54:55.617Z,103424.06
2023-02-12T13:57:22.019Z,103422.28
2023-02-12T13:59:54.056Z,103411.66
2023-02-12T14:02:37.048Z,103415.25
2023-02-12T14:05:18.662Z,103418.81
2023-02-12T14:07:55.319Z,103421.41
2023-02-12T14:10:34.838Z,103424.19
2023-02-12T14:13:15.795Z,103418.81
2023-02-12T14:15:45.316Z,103423.22
2023-02-12T14:18:28.880Z,103426.94
2023-02-12T14:21:13.398Z,103426.09
2023-02-12T14:23:45.843Z,103434.13
2023-02-12T14:26:17.923Z,103428.78
2023-02-12T14:28:58.588Z,103434.97
2023-02-12T14:31:32.852Z,103433.28
2023-02-12T14:34:05.410Z,103428.97
2023-02-12T14:36:41.335Z,103426.09
2023-02-12T14:39:19.727Z,103429.75
2023-02-12T14:41:47.442Z,103427.31
2023-02-12T14:44:16.849Z,103424.16
2023-02-12T14:46:55.058Z,103420.56
2023-02-12T14:49:42.574Z,103420.53
2023-02-12T14:52:17.767Z,103421.34
2023-02-12T14:54:57.436Z,103426.41
2023-02-12T14:57:40.458Z,103420.13
2023-02-12T15:00:34.391Z,103414.75
2023-02-12T15:03:12.782Z,103419.94
2023-02-12T15:05:48.146Z,103414.78
2023-02-12T15:08:34.508Z,103420.88
2023-02-12T15:11:19.379Z,103417.63
2023-02-12T15:13:54.745Z,103413.47
2023-02-12T15:16:24.060Z,103410.94
2023-02-12T15:18:50.383Z,103409.41
2023-02-12T15:21:22.822Z,103405.09
2023-02-12T15:24:06.348Z,103406.59
2023-02-12T15:26:45.053Z,103398.03
2023-02-12T15:29:20.850Z,103403.00
2023-02-12T15:31:52.784Z,103400.81
2023-02-12T15:34:22.191Z,103393.91
2023-02-12T15:36:48.854Z,103397.25
2023-02-12T15:39:20.626Z,103394.59
2023-02-12T15:41:47.938Z,103384.66
2023-02-12T15:44:24.584Z,103387.44
2023-02-12T15:47:11.610Z,103386.53
2023-02-12T15:49:39.614Z,103386.50
2023-02-12T15:52:17.432Z,103392.00
2023-02-12T15:54:45.847Z,103383.03
2023-02-12T15:57:19.300Z,103382.94
2023-02-12T15:59:51.381Z,103390.13
2023-02-12T16:02:21.531Z,103386.47
2023-02-12T16:04:48.600Z,103377.63
2023-02-12T16:07:15.795Z,103379.53
2023-02-12T16:09:43.251Z,103377.69
2023-02-12T16:12:14.338Z,103376.78
2023-02-12T16:14:47.832Z,103385.81
2023-02-12T16:17:19.980Z,103382.31
2023-02-12T16:19:57.200Z,103385.06
2023-02-12T16:22:38.004Z,103375.22
2023-02-12T16:25:15.379Z,103378.72
2023-02-12T16:27:52.992Z,103388.66
2023-02-12T16:30:42.687Z,103384.28
2023-02-12T16:33:40.222Z,103388.00
2023-02-12T16:36:13.861Z,103378.97
2023-02-12T16:38:48.483Z,103382.47
2023-02-12T16:41:17.818Z,103383.34
2023-02-12T16:43:50.757Z,103385.16
2023-02-12T16:46:19.782Z,103382.59
2023-02-12T16:48:49.421Z,103382.59
2023-02-12T16:51:32.120Z,103381.63
2023-02-12T16:54:01.097Z,103387.06
2023-02-12T16:56:30.656Z,103391.47
2023-02-12T16:58:58.810Z,103385.44
2023-02-12T17:01:31.339Z,103390.69
2023-02-12T17:04:00.120Z,103395.19
2023-02-12T17:06:30.979Z,103393.53
2023-02-12T17:08:58.193Z,103391.56
2023-02-12T17:11:26.080Z,103393.25
2023-02-12T17:13:54.446Z,103396.03
2023-02-12T17:16:30.340Z,103393.28
2023-02-12T17:18:57.606Z,103403.06
2023-02-12T17:21:27.307Z,103397.91
2023-02-12T17:23:56.337Z,103404.22
2023-02-12T17:26:24.124Z,103398.97
2023-02-12T17:28:50.885Z,103401.56
2023-02-12T17:31:17.565Z,103411.38
2023-02-12T17:33:44.377Z,103408.78
2023-02-12T17:36:12.091Z,103407.88
2023-02-12T17:38:38.433Z,103411.47
2023-02-12T17:41:11.496Z,103411.47
2023-02-12T17:43:38.051Z,103409.75
2023-02-12T17:46:18.436Z,103409.75
2023-02-12T17:48:44.834Z,103404.50
2023-02-12T17:51:11.615Z,103412.53
2023-02-12T17:53:39.212Z,103414.16
2023-02-12T17:56:09.594Z,103408.97
2023-02-12T17:58:36.014Z,103415.16
2023-02-12T18:01:11.494Z,103416.13
2023-02-12T18:03:38.320Z,103411.72
2023-02-12T18:06:05.212Z,103403.72
2023-02-12T18:08:31.751Z,103410.00
2023-02-12T18:10:58.706Z,103414.50
2023-02-12T18:13:26.917Z,103411.84
2023-02-12T18:15:56.193Z,103414.56
2023-02-12T18:18:22.682Z,103414.63
2023-02-12T18:20:49.166Z,103411.13
2023-02-12T18:23:15.559Z,103413.78
2023-02-12T18:25:43.305Z,103417.25
2023-02-12T18:28:10.882Z,103410.19
2023-02-12T18:30:38.882Z,103416.38
2023-02-12T18:33:05.803Z,103424.28
2023-02-12T18:35:32.749Z,103422.66
2023-02-12T18:37:59.267Z,103420.88
2023-02-12T18:40:25.745Z,103415.47
2023-02-12T18:42:52.398Z,103411.28
2023-02-12T18:45:19.358Z,103416.53
2023-02-12T18:47:45.805Z,103413.81
2023-02-12T18:50:12.170Z,103419.31
2023-02-12T18:52:38.541Z,103414.69
2023-02-12T18:55:06.986Z,103420.19
2023-02-12T18:57:33.549Z,103423.75
2023-02-12T18:59:59.957Z,103413.00
2023-02-12T19:02:26.414Z,103420.16
2023-02-12T19:04:52.837Z,103419.28
2023-02-12T19:07:19.242Z,103404.03
2023-02-12T19:09:45.766Z,103416.47
2023-02-12T19:12:12.183Z,103418.41
2023-02-12T19:14:38.586Z,103412.16
2023-02-12T19:17:04.979Z,103415.59
2023-02-12T19:19:31.337Z,103418.38
2023-02-12T19:21:57.788Z,103411.28
2023-02-12T19:24:24.373Z,103410.41
2023-02-12T19:26:53.421Z,103403.19
2023-02-12T19:29:20.314Z,103404.22
2023-02-12T19:31:46.898Z,103401.59
2023-02-12T19:34:19.313Z,103410.41
2023-02-12T19:36:46.868Z,103410.41
2023-02-12T19:39:15.863Z,103411.28
2023-02-12T19:41:42.567Z,103407.69
2023-02-12T19:44:18.859Z,103404.25
2023-02-12T19:46:47.092Z,103394.53
2023-02-12T19:49:16.656Z,103397.13
2023-02-12T19:51:44.229Z,103391.06
2023-02-12T19:54:12.897Z,103397.31
2023-02-12T19:56:39.944Z,103396.44
2023-02-12T19:59:07.200Z,103392.03
2023-02-12T20:01:34.446Z,103391.13
2023-02-12T20:04:01.839Z,103390.16
2023-02-12T20:06:31.697Z,103387.63
2023-02-12T20:08:58.361Z,103400.06
2023-02-12T20:11:28.647Z,103401.84
2023-02-12T20:13:55.907Z,103403.56
2023-02-12T20:16:25.581Z,103404.38
2023-02-12T20:18:53.762Z,103403.53
2023-02-12T20:21:28.178Z,103399.16
2023-02-12T20:23:55.190Z,103398.31
2023-02-12T20:26:22.133Z,103399.13
2023-02-12T20:28:49.748Z,103405.38
2023-02-12T20:31:19.083Z,103400.91
2023-02-12T20:33:46.289Z,103402.63
2023-02-12T20:36:13.701Z,103400.84
2023-02-12T20:38:42.210Z,103398.19
2023-02-12T20:41:10.102Z,103400.84
2023-02-12T20:43:37.453Z,103391.19
2023-02-12T20:46:14.632Z,103397.34
2023-02-12T20:48:42.019Z,103390.28
2023-02-12T20:51:11.369Z,103389.38
2023-02-12T20:53:38.377Z,103383.16
2023-02-12T20:56:07.488Z,103388.66
2023-02-12T20:58:34.518Z,103390.31
2023-02-12T21:01:12.838Z,103393.88
2023-02-12T21:03:40.182Z,103388.56
2023-02-12T21:06:07.295Z,103394.94
2023-02-12T21:08:36.531Z,103388.75
2023-02-12T21:11:05.988Z,103381.59
2023-02-12T21:13:33.510Z,103386.94
2023-02-12T21:16:05.254Z,103395.88
2023-02-12T21:18:31.843Z,103385.94
2023-02-12T21:21:06.754Z,103393.13
2023-02-12T21:23:34.821Z,103396.66
2023-02-12T21:26:10.182Z,103392.19
2023-02-12T21:28:36.985Z,103381.53
2023-02-12T21:31:07.910Z,103392.28
2023-02-12T21:33:37.764Z,103393.16
2023-02-12T21:36:09.300Z,103395.81
2023-02-12T21:38:39.758Z,103386.78
2023-02-12T21:41:22.870Z,103397.59
2023-02-12T21:43:51.720Z,103402.06
2023-02-12T21:46:20.938Z,103395.88
2023-02-12T21:48:47.417Z,103398.63
2023-02-12T21:51:24.221Z,103391.56
2023-02-12T21:53:52.702Z,103396.75
2023-02-12T21:56:20.450Z,103397.75
2023-02-12T21:58:47.655Z,103403.09
2023-02-12T22:01:16.812Z,103407.50
2023-02-12T22:03:46.746Z,103404.03
2023-02-12T22:06:15.008Z,103403.91
2023-02-12T22:08:41.403Z,103399.34
2023-02-12T22:11:10.155Z,103397.69
2023-02-12T22:13:37.532Z,103397.53
2023-02-12T22:16:14.913Z,103396.72
2023-02-12T22:18:42.301Z,103393.34
2023-02-12T22:21:13.100Z,103392.53
2023-02-12T22:23:40.566Z,103396.03
2023-02-12T22:26:21.380Z,103389.78
2023-02-12T22:28:50.360Z,103388.03
2023-02-12T22:31:19.921Z,103392.38
2023-02-12T22:33:46.853Z,103389.75
2023-02-12T22:36:13.288Z,103388.81
2023-02-12T22:38:40.752Z,103383.50
2023-02-12T22:41:08.716Z,103379.91
2023-02-12T22:43:37.121Z,103380.88
2023-02-12T22:46:04.751Z,103389.84
2023-02-12T22:48:31.302Z,103388.91
2023-02-12T22:50:58.494Z,103390.56
2023-02-12T22:53:26.219Z,103391.41
2023-02-12T22:55:52.678Z,103394.88
2023-02-12T22:58:19.235Z,103393.25
2023-02-12T23:00:45.697Z,103395.00
2023-02-12T23:03:12.124Z,103388.81
2023-02-12T23:05:38.964Z,103396.81
2023-02-12T23:08:06.328Z,103391.44
2023-02-12T23:10:33.176Z,103392.34
2023-02-12T23:13:01.388Z,103394.94
2023-02-12T23:15:27.738Z,103385.06
2023-02-12T23:17:54.138Z,103377.03
2023-02-12T23:20:20.669Z,103377.13
2023-02-12T23:22:47.101Z,103387.00
2023-02-12T23:25:13.503Z,103383.50
2023-02-12T23:27:39.882Z,103382.56
2023-02-12T23:30:06.956Z,103377.44
2023-02-12T23:32:33.282Z,103383.72
2023-02-12T23:34:59.636Z,103388.13
2023-02-12T23:37:25.968Z,103389.03
2023-02-12T23:39:52.373Z,103376.50
2023-02-12T23:42:18.996Z,103376.59
2023-02-12T23:44:45.358Z,103373.97
2023-02-12T23:47:11.701Z,103376.59
2023-02-12T23:49:38.723Z,103380.09
2023-02-12T23:52:05.109Z,103364.97
2023-02-12T23:54:31.729Z,103360.47
2023-02-12T23:56:58.234Z,103356.03
2023-02-12T23:59:25.568Z,103358.03
